sensor_id;sensor_type;location;lat;lon;timestamp;P1;durP1;ratioP1;P2;durP2;ratioP2
11447;SDS011;43755;49.736;8.734;2022-12-18T00:01:37;41.55;;;22.52;;
11447;SDS011;43755;49.736;8.734;2022-12-18T00:03:39;41.92;;;22.75;;
11447;SDS011;43755;49.736;8.734;2022-12-18T00:05:45;40.08;;;21.20;;
11447;SDS011;43755;49.736;8.734;2022-12-18T00:07:47;59.60;;;27.70;;
11447;SDS011;43755;49.736;8.734;2022-12-18T00:09:49;43.63;;;22.98;;
11447;SDS011;43755;49.736;8.734;2022-12-18T00:11:50;43.45;;;23.23;;
11447;SDS011;43755;49.736;8.734;2022-12-18T00:13:52;41.33;;;22.67;;
11447;SDS011;43755;49.736;8.734;2022-12-18T00:15:55;46.33;;;24.58;;
11447;SDS011;43755;49.736;8.734;2022-12-18T00:18:04;47.17;;;25.25;;
11447;SDS011;43755;49.736;8.734;2022-12-18T00:20:07;51.40;;;26.40;;
11447;SDS011;43755;49.736;8.734;2022-12-18T00:22:09;47.47;;;25.77;;
11447;SDS011;43755;49.736;8.734;2022-12-18T00:24:11;48.05;;;25.50;;
11447;SDS011;43755;49.736;8.734;2022-12-18T00:26:13;49.85;;;27.08;;
11447;SDS011;43755;49.736;8.734;2022-12-18T00:28:16;50.75;;;26.52;;
11447;SDS011;43755;49.736;8.734;2022-12-18T00:30:17;52.80;;;28.90;;
11447;SDS011;43755;49.736;8.734;2022-12-18T00:32:18;47.40;;;25.45;;
11447;SDS011;43755;49.736;8.734;2022-12-18T00:34:21;38.55;;;21.48;;
11447;SDS011;43755;49.736;8.734;2022-12-18T00:36:23;44.10;;;23.88;;
11447;SDS011;43755;49.736;8.734;2022-12-18T00:38:26;44.33;;;23.33;;
11447;SDS011;43755;49.736;8.734;2022-12-18T00:40:27;48.13;;;23.13;;
11447;SDS011;43755;49.736;8.734;2022-12-18T00:42:28;38.10;;;20.88;;
11447;SDS011;43755;49.736;8.734;2022-12-18T00:44:47;43.05;;;22.15;;
11447;SDS011;43755;49.736;8.734;2022-12-18T00:46:49;40.28;;;22.83;;
11447;SDS011;43755;49.736;8.734;2022-12-18T00:48:50;41.03;;;21.60;;
11447;SDS011;43755;49.736;8.734;2022-12-18T00:50:52;47.63;;;23.83;;
11447;SDS011;43755;49.736;8.734;2022-12-18T00:52:53;40.30;;;21.58;;
11447;SDS011;43755;49.736;8.734;2022-12-18T00:54:55;44.65;;;22.58;;
11447;SDS011;43755;49.736;8.734;2022-12-18T00:56:56;43.17;;;21.85;;
11447;SDS011;43755;49.736;8.734;2022-12-18T00:58:57;45.92;;;24.33;;
11447;SDS011;43755;49.736;8.734;2022-12-18T01:00:59;43.83;;;23.52;;
11447;SDS011;43755;49.736;8.734;2022-12-18T01:03:00;43.03;;;22.38;;
11447;SDS011;43755;49.736;8.734;2022-12-18T01:05:04;44.38;;;24.08;;
11447;SDS011;43755;49.736;8.734;2022-12-18T01:07:07;42.50;;;23.05;;
11447;SDS011;43755;49.736;8.734;2022-12-18T01:09:08;43.78;;;23.08;;
11447;SDS011;43755;49.736;8.734;2022-12-18T01:11:10;40.72;;;22.27;;
11447;SDS011;43755;49.736;8.734;2022-12-18T01:13:13;38.13;;;21.08;;
11447;SDS011;43755;49.736;8.734;2022-12-18T01:15:15;40.28;;;21.15;;
11447;SDS011;43755;49.736;8.734;2022-12-18T01:17:17;38.47;;;20.70;;
11447;SDS011;43755;49.736;8.734;2022-12-18T01:19:19;36.35;;;20.23;;
11447;SDS011;43755;49.736;8.734;2022-12-18T01:21:20;36.38;;;20.80;;
11447;SDS011;43755;49.736;8.734;2022-12-18T01:23:26;35.17;;;20.40;;
11447;SDS011;43755;49.736;8.734;2022-12-18T01:25:28;34.83;;;20.08;;
11447;SDS011;43755;49.736;8.734;2022-12-18T01:27:29;38.78;;;21.35;;
11447;SDS011;43755;49.736;8.734;2022-12-18T01:29:30;38.90;;;21.50;;
11447;SDS011;43755;49.736;8.734;2022-12-18T01:31:32;39.45;;;22.48;;
11447;SDS011;43755;49.736;8.734;2022-12-18T01:33:34;37.40;;;20.83;;
11447;SDS011;43755;49.736;8.734;2022-12-18T01:35:39;41.03;;;22.13;;
11447;SDS011;43755;49.736;8.734;2022-12-18T01:37:41;41.55;;;22.40;;
11447;SDS011;43755;49.736;8.734;2022-12-18T01:39:44;38.50;;;21.85;;
11447;SDS011;43755;49.736;8.734;2022-12-18T01:41:45;41.75;;;21.60;;
11447;SDS011;43755;49.736;8.734;2022-12-18T01:46:41;38.17;;;20.30;;
11447;SDS011;43755;49.736;8.734;2022-12-18T01:48:42;36.67;;;20.20;;
11447;SDS011;43755;49.736;8.734;2022-12-18T01:50:45;35.40;;;19.83;;
11447;SDS011;43755;49.736;8.734;2022-12-18T01:52:49;37.58;;;19.88;;
11447;SDS011;43755;49.736;8.734;2022-12-18T01:54:55;38.85;;;20.55;;
11447;SDS011;43755;49.736;8.734;2022-12-18T01:56:57;35.08;;;19.70;;
11447;SDS011;43755;49.736;8.734;2022-12-18T01:58:59;28.75;;;17.65;;
11447;SDS011;43755;49.736;8.734;2022-12-18T02:01:03;35.25;;;19.05;;
11447;SDS011;43755;49.736;8.734;2022-12-18T02:03:05;32.47;;;18.42;;
11447;SDS011;43755;49.736;8.734;2022-12-18T02:05:07;31.17;;;18.10;;
11447;SDS011;43755;49.736;8.734;2022-12-18T02:07:11;36.03;;;20.20;;
11447;SDS011;43755;49.736;8.734;2022-12-18T02:09:18;38.15;;;20.33;;
11447;SDS011;43755;49.736;8.734;2022-12-18T02:11:28;34.65;;;19.95;;
11447;SDS011;43755;49.736;8.734;2022-12-18T02:13:40;37.97;;;20.17;;
11447;SDS011;43755;49.736;8.734;2022-12-18T02:15:49;35.17;;;20.30;;
11447;SDS011;43755;49.736;8.734;2022-12-18T02:17:57;42.08;;;19.65;;
11447;SDS011;43755;49.736;8.734;2022-12-18T02:20:05;37.85;;;20.38;;
11447;SDS011;43755;49.736;8.734;2022-12-18T02:22:26;37.55;;;19.80;;
11447;SDS011;43755;49.736;8.734;2022-12-18T02:24:37;35.30;;;19.10;;
11447;SDS011;43755;49.736;8.734;2022-12-18T02:26:48;30.27;;;17.67;;
11447;SDS011;43755;49.736;8.734;2022-12-18T02:28:54;35.83;;;19.33;;
11447;SDS011;43755;49.736;8.734;2022-12-18T02:31:01;33.88;;;19.23;;
11447;SDS011;43755;49.736;8.734;2022-12-18T02:33:06;31.02;;;17.42;;
11447;SDS011;43755;49.736;8.734;2022-12-18T02:35:11;32.08;;;17.83;;
11447;SDS011;43755;49.736;8.734;2022-12-18T02:37:16;30.52;;;17.92;;
11447;SDS011;43755;49.736;8.734;2022-12-18T02:39:20;31.75;;;17.75;;
11447;SDS011;43755;49.736;8.734;2022-12-18T02:41:22;35.60;;;19.45;;
11447;SDS011;43755;49.736;8.734;2022-12-18T02:43:26;35.33;;;18.98;;
11447;SDS011;43755;49.736;8.734;2022-12-18T02:45:27;32.30;;;18.58;;
11447;SDS011;43755;49.736;8.734;2022-12-18T02:47:29;37.95;;;19.50;;
11447;SDS011;43755;49.736;8.734;2022-12-18T02:49:35;33.85;;;19.33;;
11447;SDS011;43755;49.736;8.734;2022-12-18T02:51:44;35.38;;;20.30;;
11447;SDS011;43755;49.736;8.734;2022-12-18T02:53:52;30.67;;;18.52;;
11447;SDS011;43755;49.736;8.734;2022-12-18T02:56:02;33.05;;;18.23;;
11447;SDS011;43755;49.736;8.734;2022-12-18T02:58:10;32.28;;;17.42;;
11447;SDS011;43755;49.736;8.734;2022-12-18T03:00:19;33.85;;;18.50;;
11447;SDS011;43755;49.736;8.734;2022-12-18T03:02:23;31.05;;;17.38;;
11447;SDS011;43755;49.736;8.734;2022-12-18T03:04:33;30.95;;;18.63;;
11447;SDS011;43755;49.736;8.734;2022-12-18T03:06:40;33.85;;;17.90;;
11447;SDS011;43755;49.736;8.734;2022-12-18T03:08:47;31.98;;;17.17;;
11447;SDS011;43755;49.736;8.734;2022-12-18T03:10:53;31.63;;;17.40;;
11447;SDS011;43755;49.736;8.734;2022-12-18T03:13:00;34.15;;;19.10;;
11447;SDS011;43755;49.736;8.734;2022-12-18T03:15:06;33.17;;;18.25;;
11447;SDS011;43755;49.736;8.734;2022-12-18T03:17:13;35.25;;;19.75;;
11447;SDS011;43755;49.736;8.734;2022-12-18T03:19:19;34.85;;;18.98;;
11447;SDS011;43755;49.736;8.734;2022-12-18T03:21:25;32.03;;;17.98;;
11447;SDS011;43755;49.736;8.734;2022-12-18T03:23:32;31.63;;;19.00;;
11447;SDS011;43755;49.736;8.734;2022-12-18T03:25:38;33.25;;;19.00;;
11447;SDS011;43755;49.736;8.734;2022-12-18T03:27:43;32.67;;;19.02;;
11447;SDS011;43755;49.736;8.734;2022-12-18T03:29:50;34.88;;;20.02;;
11447;SDS011;43755;49.736;8.734;2022-12-18T03:32:07;32.83;;;18.63;;
11447;SDS011;43755;49.736;8.734;2022-12-18T03:34:14;34.53;;;19.45;;
11447;SDS011;43755;49.736;8.734;2022-12-18T03:36:18;36.17;;;19.23;;
11447;SDS011;43755;49.736;8.734;2022-12-18T03:38:20;32.13;;;18.75;;
11447;SDS011;43755;49.736;8.734;2022-12-18T03:40:22;32.13;;;18.85;;
11447;SDS011;43755;49.736;8.734;2022-12-18T03:42:32;36.70;;;19.55;;
11447;SDS011;43755;49.736;8.734;2022-12-18T03:44:40;33.15;;;18.83;;
11447;SDS011;43755;49.736;8.734;2022-12-18T03:46:47;34.88;;;18.90;;
11447;SDS011;43755;49.736;8.734;2022-12-18T03:48:58;32.85;;;20.08;;
11447;SDS011;43755;49.736;8.734;2022-12-18T03:51:06;35.35;;;19.75;;
11447;SDS011;43755;49.736;8.734;2022-12-18T03:53:14;34.97;;;20.25;;
11447;SDS011;43755;49.736;8.734;2022-12-18T03:55:25;39.08;;;21.23;;
11447;SDS011;43755;49.736;8.734;2022-12-18T03:57:31;35.05;;;20.52;;
11447;SDS011;43755;49.736;8.734;2022-12-18T03:59:34;35.95;;;19.77;;
11447;SDS011;43755;49.736;8.734;2022-12-18T04:01:37;34.17;;;19.42;;
11447;SDS011;43755;49.736;8.734;2022-12-18T04:03:42;40.53;;;21.13;;
11447;SDS011;43755;49.736;8.734;2022-12-18T04:05:47;36.85;;;21.98;;
11447;SDS011;43755;49.736;8.734;2022-12-18T04:07:53;39.97;;;20.90;;
11447;SDS011;43755;49.736;8.734;2022-12-18T04:09:57;36.40;;;20.58;;
11447;SDS011;43755;49.736;8.734;2022-12-18T04:12:01;36.17;;;21.05;;
11447;SDS011;43755;49.736;8.734;2022-12-18T04:14:03;37.88;;;20.83;;
11447;SDS011;43755;49.736;8.734;2022-12-18T04:16:05;34.50;;;19.98;;
11447;SDS011;43755;49.736;8.734;2022-12-18T04:18:07;31.30;;;19.23;;
11447;SDS011;43755;49.736;8.734;2022-12-18T04:20:09;35.35;;;20.15;;
11447;SDS011;43755;49.736;8.734;2022-12-18T04:22:11;33.00;;;19.13;;
11447;SDS011;43755;49.736;8.734;2022-12-18T04:24:14;38.20;;;20.98;;
11447;SDS011;43755;49.736;8.734;2022-12-18T04:26:15;36.58;;;20.20;;
11447;SDS011;43755;49.736;8.734;2022-12-18T04:28:17;33.65;;;20.25;;
11447;SDS011;43755;49.736;8.734;2022-12-18T04:30:18;34.15;;;20.00;;
11447;SDS011;43755;49.736;8.734;2022-12-18T04:32:19;37.03;;;19.88;;
11447;SDS011;43755;49.736;8.734;2022-12-18T04:34:21;34.20;;;19.67;;
11447;SDS011;43755;49.736;8.734;2022-12-18T04:36:22;37.53;;;19.88;;
11447;SDS011;43755;49.736;8.734;2022-12-18T04:38:27;36.92;;;20.23;;
11447;SDS011;43755;49.736;8.734;2022-12-18T04:40:30;36.17;;;21.10;;
11447;SDS011;43755;49.736;8.734;2022-12-18T04:42:31;36.00;;;20.67;;
11447;SDS011;43755;49.736;8.734;2022-12-18T04:44:32;37.75;;;20.30;;
11447;SDS011;43755;49.736;8.734;2022-12-18T04:46:34;34.50;;;19.33;;
11447;SDS011;43755;49.736;8.734;2022-12-18T04:48:35;32.60;;;19.13;;
11447;SDS011;43755;49.736;8.734;2022-12-18T04:50:37;30.85;;;18.73;;
11447;SDS011;43755;49.736;8.734;2022-12-18T04:52:39;33.40;;;19.15;;
11447;SDS011;43755;49.736;8.734;2022-12-18T04:54:40;37.30;;;20.42;;
11447;SDS011;43755;49.736;8.734;2022-12-18T04:56:43;33.90;;;19.08;;
11447;SDS011;43755;49.736;8.734;2022-12-18T04:58:44;31.92;;;18.95;;
11447;SDS011;43755;49.736;8.734;2022-12-18T05:00:46;34.00;;;19.70;;
11447;SDS011;43755;49.736;8.734;2022-12-18T05:02:47;30.23;;;18.88;;
11447;SDS011;43755;49.736;8.734;2022-12-18T05:04:49;33.67;;;19.75;;
11447;SDS011;43755;49.736;8.734;2022-12-18T05:06:50;37.03;;;21.00;;
11447;SDS011;43755;49.736;8.734;2022-12-18T05:08:51;34.38;;;19.48;;
11447;SDS011;43755;49.736;8.734;2022-12-18T05:10:57;33.33;;;19.77;;
11447;SDS011;43755;49.736;8.734;2022-12-18T05:13:01;32.78;;;19.00;;
11447;SDS011;43755;49.736;8.734;2022-12-18T05:15:03;35.13;;;19.98;;
11447;SDS011;43755;49.736;8.734;2022-12-18T05:17:04;32.60;;;19.75;;
11447;SDS011;43755;49.736;8.734;2022-12-18T05:19:06;35.22;;;19.98;;
11447;SDS011;43755;49.736;8.734;2022-12-18T05:21:07;32.55;;;19.38;;
11447;SDS011;43755;49.736;8.734;2022-12-18T05:23:09;33.35;;;19.60;;
11447;SDS011;43755;49.736;8.734;2022-12-18T05:25:10;34.85;;;18.90;;
11447;SDS011;43755;49.736;8.734;2022-12-18T05:27:11;32.60;;;18.77;;
11447;SDS011;43755;49.736;8.734;2022-12-18T05:29:14;36.42;;;20.67;;
11447;SDS011;43755;49.736;8.734;2022-12-18T05:31:16;34.03;;;19.70;;
11447;SDS011;43755;49.736;8.734;2022-12-18T05:33:17;35.00;;;18.90;;
11447;SDS011;43755;49.736;8.734;2022-12-18T05:35:19;32.70;;;19.35;;
11447;SDS011;43755;49.736;8.734;2022-12-18T05:37:20;35.95;;;19.83;;
11447;SDS011;43755;49.736;8.734;2022-12-18T05:39:22;35.55;;;20.52;;
11447;SDS011;43755;49.736;8.734;2022-12-18T05:41:23;34.63;;;19.98;;
11447;SDS011;43755;49.736;8.734;2022-12-18T05:43:25;33.90;;;19.70;;
11447;SDS011;43755;49.736;8.734;2022-12-18T05:45:29;34.90;;;19.92;;
11447;SDS011;43755;49.736;8.734;2022-12-18T05:47:30;34.05;;;18.73;;
11447;SDS011;43755;49.736;8.734;2022-12-18T05:49:32;32.63;;;19.23;;
11447;SDS011;43755;49.736;8.734;2022-12-18T05:51:33;30.85;;;18.88;;
11447;SDS011;43755;49.736;8.734;2022-12-18T05:53:35;34.45;;;19.33;;
11447;SDS011;43755;49.736;8.734;2022-12-18T05:55:38;33.92;;;18.90;;
11447;SDS011;43755;49.736;8.734;2022-12-18T05:57:41;32.78;;;18.58;;
11447;SDS011;43755;49.736;8.734;2022-12-18T05:59:42;30.45;;;18.42;;
11447;SDS011;43755;49.736;8.734;2022-12-18T06:01:45;32.30;;;18.60;;
11447;SDS011;43755;49.736;8.734;2022-12-18T06:03:47;34.70;;;18.80;;
11447;SDS011;43755;49.736;8.734;2022-12-18T06:05:49;32.15;;;18.30;;
11447;SDS011;43755;49.736;8.734;2022-12-18T06:07:50;34.45;;;19.13;;
11447;SDS011;43755;49.736;8.734;2022-12-18T06:09:52;36.05;;;20.05;;
11447;SDS011;43755;49.736;8.734;2022-12-18T06:11:53;36.22;;;19.33;;
11447;SDS011;43755;49.736;8.734;2022-12-18T06:13:55;37.72;;;19.95;;
11447;SDS011;43755;49.736;8.734;2022-12-18T06:15:57;34.50;;;19.92;;
11447;SDS011;43755;49.736;8.734;2022-12-18T06:18:01;31.27;;;18.65;;
11447;SDS011;43755;49.736;8.734;2022-12-18T06:20:02;35.95;;;19.50;;
11447;SDS011;43755;49.736;8.734;2022-12-18T06:22:06;35.35;;;19.63;;
11447;SDS011;43755;49.736;8.734;2022-12-18T06:24:07;37.35;;;20.17;;
11447;SDS011;43755;49.736;8.734;2022-12-18T06:26:09;36.00;;;20.73;;
11447;SDS011;43755;49.736;8.734;2022-12-18T06:28:12;32.58;;;18.88;;
11447;SDS011;43755;49.736;8.734;2022-12-18T06:30:14;35.00;;;20.27;;
11447;SDS011;43755;49.736;8.734;2022-12-18T06:32:15;36.42;;;19.38;;
11447;SDS011;43755;49.736;8.734;2022-12-18T06:34:18;33.00;;;18.35;;
11447;SDS011;43755;49.736;8.734;2022-12-18T06:36:19;38.78;;;26.02;;
11447;SDS011;43755;49.736;8.734;2022-12-18T06:38:21;38.58;;;23.15;;
11447;SDS011;43755;49.736;8.734;2022-12-18T06:40:23;34.95;;;20.38;;
11447;SDS011;43755;49.736;8.734;2022-12-18T06:42:24;33.50;;;19.05;;
11447;SDS011;43755;49.736;8.734;2022-12-18T06:44:26;34.92;;;19.55;;
11447;SDS011;43755;49.736;8.734;2022-12-18T06:46:27;36.13;;;19.98;;
11447;SDS011;43755;49.736;8.734;2022-12-18T06:48:28;33.60;;;18.60;;
11447;SDS011;43755;49.736;8.734;2022-12-18T06:50:32;31.70;;;18.85;;
11447;SDS011;43755;49.736;8.734;2022-12-18T06:52:33;35.92;;;19.20;;
11447;SDS011;43755;49.736;8.734;2022-12-18T06:54:34;34.38;;;19.75;;
11447;SDS011;43755;49.736;8.734;2022-12-18T06:56:36;33.75;;;18.90;;
11447;SDS011;43755;49.736;8.734;2022-12-18T06:58:37;35.00;;;21.23;;
11447;SDS011;43755;49.736;8.734;2022-12-18T07:00:39;33.38;;;19.60;;
11447;SDS011;43755;49.736;8.734;2022-12-18T07:02:41;38.83;;;19.83;;
11447;SDS011;43755;49.736;8.734;2022-12-18T07:04:42;30.80;;;19.17;;
11447;SDS011;43755;49.736;8.734;2022-12-18T07:06:45;34.53;;;19.98;;
11447;SDS011;43755;49.736;8.734;2022-12-18T07:08:46;32.67;;;19.45;;
11447;SDS011;43755;49.736;8.734;2022-12-18T07:10:49;33.47;;;19.08;;
11447;SDS011;43755;49.736;8.734;2022-12-18T07:12:50;33.22;;;19.05;;
11447;SDS011;43755;49.736;8.734;2022-12-18T07:14:51;32.80;;;19.10;;
11447;SDS011;43755;49.736;8.734;2022-12-18T07:16:53;33.25;;;19.25;;
11447;SDS011;43755;49.736;8.734;2022-12-18T07:18:54;32.80;;;18.55;;
11447;SDS011;43755;49.736;8.734;2022-12-18T07:20:56;32.00;;;18.45;;
11447;SDS011;43755;49.736;8.734;2022-12-18T07:22:59;31.02;;;18.30;;
11447;SDS011;43755;49.736;8.734;2022-12-18T07:25:03;34.85;;;20.50;;
11447;SDS011;43755;49.736;8.734;2022-12-18T07:27:05;33.72;;;19.85;;
11447;SDS011;43755;49.736;8.734;2022-12-18T07:29:06;35.45;;;20.73;;
11447;SDS011;43755;49.736;8.734;2022-12-18T07:31:08;37.17;;;20.70;;
11447;SDS011;43755;49.736;8.734;2022-12-18T07:33:11;36.10;;;19.80;;
11447;SDS011;43755;49.736;8.734;2022-12-18T07:35:13;40.88;;;24.48;;
11447;SDS011;43755;49.736;8.734;2022-12-18T07:37:14;41.47;;;24.88;;
11447;SDS011;43755;49.736;8.734;2022-12-18T07:39:17;46.00;;;25.88;;
11447;SDS011;43755;49.736;8.734;2022-12-18T07:41:19;46.05;;;26.58;;
11447;SDS011;43755;49.736;8.734;2022-12-18T07:43:20;44.97;;;25.95;;
11447;SDS011;43755;49.736;8.734;2022-12-18T07:45:22;45.90;;;25.65;;
11447;SDS011;43755;49.736;8.734;2022-12-18T07:47:23;49.47;;;27.00;;
11447;SDS011;43755;49.736;8.734;2022-12-18T07:49:25;43.30;;;25.30;;
11447;SDS011;43755;49.736;8.734;2022-12-18T07:51:27;36.42;;;23.15;;
11447;SDS011;43755;49.736;8.734;2022-12-18T07:53:29;41.72;;;23.30;;
11447;SDS011;43755;49.736;8.734;2022-12-18T07:55:32;35.67;;;22.40;;
11447;SDS011;43755;49.736;8.734;2022-12-18T07:57:33;42.03;;;24.70;;
11447;SDS011;43755;49.736;8.734;2022-12-18T07:59:35;38.10;;;22.27;;
11447;SDS011;43755;49.736;8.734;2022-12-18T08:01:36;38.75;;;22.08;;
11447;SDS011;43755;49.736;8.734;2022-12-18T08:03:38;38.97;;;21.67;;
11447;SDS011;43755;49.736;8.734;2022-12-18T08:05:41;38.42;;;22.92;;
11447;SDS011;43755;49.736;8.734;2022-12-18T08:07:42;36.95;;;21.92;;
11447;SDS011;43755;49.736;8.734;2022-12-18T08:09:44;40.03;;;23.38;;
11447;SDS011;43755;49.736;8.734;2022-12-18T08:11:46;43.60;;;24.80;;
11447;SDS011;43755;49.736;8.734;2022-12-18T08:13:48;42.10;;;23.98;;
11447;SDS011;43755;49.736;8.734;2022-12-18T08:15:55;46.15;;;26.25;;
11447;SDS011;43755;49.736;8.734;2022-12-18T08:17:57;43.20;;;25.60;;
11447;SDS011;43755;49.736;8.734;2022-12-18T08:19:58;42.35;;;25.52;;
11447;SDS011;43755;49.736;8.734;2022-12-18T08:21:59;41.63;;;24.83;;
11447;SDS011;43755;49.736;8.734;2022-12-18T08:24:01;45.25;;;27.55;;
11447;SDS011;43755;49.736;8.734;2022-12-18T08:26:02;52.88;;;30.85;;
11447;SDS011;43755;49.736;8.734;2022-12-18T08:28:05;55.58;;;31.75;;
11447;SDS011;43755;49.736;8.734;2022-12-18T08:30:07;62.53;;;32.70;;
11447;SDS011;43755;49.736;8.734;2022-12-18T08:32:09;60.85;;;32.05;;
11447;SDS011;43755;49.736;8.734;2022-12-18T08:34:11;52.00;;;31.15;;
11447;SDS011;43755;49.736;8.734;2022-12-18T08:36:13;52.40;;;29.30;;
11447;SDS011;43755;49.736;8.734;2022-12-18T08:38:14;48.28;;;29.15;;
11447;SDS011;43755;49.736;8.734;2022-12-18T08:40:15;48.47;;;28.67;;
11447;SDS011;43755;49.736;8.734;2022-12-18T08:42:17;44.80;;;27.20;;
11447;SDS011;43755;49.736;8.734;2022-12-18T08:44:37;43.80;;;26.73;;
11447;SDS011;43755;49.736;8.734;2022-12-18T08:46:39;52.75;;;32.92;;
11447;SDS011;43755;49.736;8.734;2022-12-18T08:48:42;48.38;;;30.65;;
11447;SDS011;43755;49.736;8.734;2022-12-18T08:50:49;50.78;;;30.80;;
11447;SDS011;43755;49.736;8.734;2022-12-18T08:52:54;48.08;;;28.75;;
11447;SDS011;43755;49.736;8.734;2022-12-18T08:54:56;57.08;;;34.40;;
11447;SDS011;43755;49.736;8.734;2022-12-18T08:56:57;48.40;;;28.90;;
11447;SDS011;43755;49.736;8.734;2022-12-18T08:58:59;57.70;;;34.53;;
11447;SDS011;43755;49.736;8.734;2022-12-18T09:01:01;53.30;;;33.38;;
11447;SDS011;43755;49.736;8.734;2022-12-18T09:03:03;62.45;;;37.78;;
11447;SDS011;43755;49.736;8.734;2022-12-18T09:05:05;62.42;;;35.63;;
11447;SDS011;43755;49.736;8.734;2022-12-18T09:07:06;51.33;;;28.52;;
11447;SDS011;43755;49.736;8.734;2022-12-18T09:09:09;38.95;;;24.23;;
11447;SDS011;43755;49.736;8.734;2022-12-18T09:11:12;41.55;;;25.45;;
11447;SDS011;43755;49.736;8.734;2022-12-18T09:13:16;49.10;;;30.02;;
11447;SDS011;43755;49.736;8.734;2022-12-18T09:15:17;45.83;;;26.08;;
11447;SDS011;43755;49.736;8.734;2022-12-18T09:17:20;43.20;;;26.38;;
11447;SDS011;43755;49.736;8.734;2022-12-18T09:19:21;37.25;;;22.75;;
11447;SDS011;43755;49.736;8.734;2022-12-18T09:21:23;38.08;;;23.25;;
11447;SDS011;43755;49.736;8.734;2022-12-18T09:23:24;41.75;;;24.90;;
11447;SDS011;43755;49.736;8.734;2022-12-18T09:25:26;38.42;;;23.88;;
11447;SDS011;43755;49.736;8.734;2022-12-18T09:27:31;45.45;;;24.77;;
11447;SDS011;43755;49.736;8.734;2022-12-18T09:29:33;43.53;;;25.63;;
11447;SDS011;43755;49.736;8.734;2022-12-18T09:31:35;47.03;;;25.02;;
11447;SDS011;43755;49.736;8.734;2022-12-18T09:33:38;40.22;;;25.40;;
11447;SDS011;43755;49.736;8.734;2022-12-18T09:35:40;45.85;;;28.25;;
11447;SDS011;43755;49.736;8.734;2022-12-18T09:37:43;51.33;;;30.20;;
11447;SDS011;43755;49.736;8.734;2022-12-18T09:39:44;51.80;;;30.80;;
11447;SDS011;43755;49.736;8.734;2022-12-18T09:41:46;57.75;;;30.83;;
11447;SDS011;43755;49.736;8.734;2022-12-18T09:43:53;53.55;;;29.15;;
11447;SDS011;43755;49.736;8.734;2022-12-18T09:46:00;47.55;;;28.40;;
11447;SDS011;43755;49.736;8.734;2022-12-18T09:48:05;45.70;;;27.65;;
11447;SDS011;43755;49.736;8.734;2022-12-18T09:50:22;39.70;;;25.17;;
11447;SDS011;43755;49.736;8.734;2022-12-18T09:52:29;41.78;;;23.48;;
11447;SDS011;43755;49.736;8.734;2022-12-18T09:54:35;49.50;;;25.02;;
11447;SDS011;43755;49.736;8.734;2022-12-18T09:56:46;38.33;;;23.98;;
11447;SDS011;43755;49.736;8.734;2022-12-18T09:58:49;39.50;;;23.58;;
11447;SDS011;43755;49.736;8.734;2022-12-18T10:00:55;39.72;;;24.17;;
11447;SDS011;43755;49.736;8.734;2022-12-18T10:02:58;39.80;;;23.70;;
11447;SDS011;43755;49.736;8.734;2022-12-18T10:05:03;41.40;;;23.60;;
11447;SDS011;43755;49.736;8.734;2022-12-18T10:07:13;37.55;;;23.70;;
11447;SDS011;43755;49.736;8.734;2022-12-18T10:09:23;41.47;;;24.52;;
11447;SDS011;43755;49.736;8.734;2022-12-18T10:11:34;40.78;;;24.83;;
11447;SDS011;43755;49.736;8.734;2022-12-18T10:13:45;37.58;;;23.38;;
11447;SDS011;43755;49.736;8.734;2022-12-18T10:15:55;38.55;;;24.90;;
11447;SDS011;43755;49.736;8.734;2022-12-18T10:18:06;40.35;;;24.98;;
11447;SDS011;43755;49.736;8.734;2022-12-18T10:20:21;37.63;;;24.02;;
11447;SDS011;43755;49.736;8.734;2022-12-18T10:22:33;41.40;;;25.67;;
11447;SDS011;43755;49.736;8.734;2022-12-18T10:24:45;41.72;;;24.95;;
11447;SDS011;43755;49.736;8.734;2022-12-18T10:26:53;40.15;;;25.13;;
11447;SDS011;43755;49.736;8.734;2022-12-18T10:29:04;42.50;;;25.38;;
11447;SDS011;43755;49.736;8.734;2022-12-18T10:31:12;42.65;;;26.52;;
11447;SDS011;43755;49.736;8.734;2022-12-18T10:33:18;40.58;;;25.15;;
11447;SDS011;43755;49.736;8.734;2022-12-18T10:35:23;40.85;;;24.83;;
11447;SDS011;43755;49.736;8.734;2022-12-18T10:37:27;43.17;;;25.00;;
11447;SDS011;43755;49.736;8.734;2022-12-18T10:39:31;38.75;;;23.80;;
11447;SDS011;43755;49.736;8.734;2022-12-18T10:41:33;36.55;;;23.10;;
11447;SDS011;43755;49.736;8.734;2022-12-18T10:43:35;35.85;;;22.77;;
11447;SDS011;43755;49.736;8.734;2022-12-18T10:45:38;34.75;;;22.45;;
11447;SDS011;43755;49.736;8.734;2022-12-18T10:47:41;34.63;;;23.25;;
11447;SDS011;43755;49.736;8.734;2022-12-18T10:49:47;35.03;;;22.25;;
11447;SDS011;43755;49.736;8.734;2022-12-18T10:51:50;35.95;;;22.02;;
11447;SDS011;43755;49.736;8.734;2022-12-18T10:54:05;34.72;;;22.23;;
11447;SDS011;43755;49.736;8.734;2022-12-18T10:56:18;33.33;;;22.02;;
11447;SDS011;43755;49.736;8.734;2022-12-18T10:58:23;36.50;;;23.38;;
11447;SDS011;43755;49.736;8.734;2022-12-18T11:00:27;35.45;;;22.67;;
11447;SDS011;43755;49.736;8.734;2022-12-18T11:02:33;33.88;;;22.45;;
11447;SDS011;43755;49.736;8.734;2022-12-18T11:04:35;31.77;;;20.23;;
11447;SDS011;43755;49.736;8.734;2022-12-18T11:06:52;31.95;;;18.83;;
11447;SDS011;43755;49.736;8.734;2022-12-18T11:09:01;29.50;;;18.48;;
11447;SDS011;43755;49.736;8.734;2022-12-18T11:11:07;29.90;;;18.45;;
11447;SDS011;43755;49.736;8.734;2022-12-18T11:13:18;28.23;;;18.95;;
11447;SDS011;43755;49.736;8.734;2022-12-18T11:15:23;54.30;;;22.90;;
11447;SDS011;43755;49.736;8.734;2022-12-18T11:17:30;33.30;;;22.17;;
11447;SDS011;43755;49.736;8.734;2022-12-18T11:19:34;36.88;;;22.35;;
11447;SDS011;43755;49.736;8.734;2022-12-18T11:21:38;35.15;;;22.80;;
11447;SDS011;43755;49.736;8.734;2022-12-18T11:23:44;36.55;;;23.35;;
11447;SDS011;43755;49.736;8.734;2022-12-18T11:25:51;35.15;;;22.35;;
11447;SDS011;43755;49.736;8.734;2022-12-18T11:27:56;59.70;;;24.75;;
11447;SDS011;43755;49.736;8.734;2022-12-18T11:30:08;35.47;;;22.73;;
11447;SDS011;43755;49.736;8.734;2022-12-18T11:32:24;34.63;;;22.38;;
11447;SDS011;43755;49.736;8.734;2022-12-18T11:34:31;32.58;;;20.98;;
11447;SDS011;43755;49.736;8.734;2022-12-18T11:36:33;33.60;;;22.50;;
11447;SDS011;43755;49.736;8.734;2022-12-18T11:38:39;34.72;;;21.40;;
11447;SDS011;43755;49.736;8.734;2022-12-18T11:40:43;35.83;;;22.02;;
11447;SDS011;43755;49.736;8.734;2022-12-18T11:42:50;34.90;;;21.65;;
11447;SDS011;43755;49.736;8.734;2022-12-18T11:44:57;33.50;;;21.45;;
11447;SDS011;43755;49.736;8.734;2022-12-18T11:47:03;35.30;;;23.23;;
11447;SDS011;43755;49.736;8.734;2022-12-18T11:49:12;82.75;;;26.17;;
11447;SDS011;43755;49.736;8.734;2022-12-18T11:51:20;35.95;;;22.52;;
11447;SDS011;43755;49.736;8.734;2022-12-18T11:53:27;33.53;;;22.48;;
11447;SDS011;43755;49.736;8.734;2022-12-18T11:55:32;32.45;;;20.67;;
11447;SDS011;43755;49.736;8.734;2022-12-18T11:57:42;35.00;;;21.15;;
11447;SDS011;43755;49.736;8.734;2022-12-18T11:59:50;39.00;;;22.77;;
11447;SDS011;43755;49.736;8.734;2022-12-18T12:01:58;28.45;;;18.48;;
11447;SDS011;43755;49.736;8.734;2022-12-18T12:06:45;30.23;;;17.88;;
11447;SDS011;43755;49.736;8.734;2022-12-18T12:08:58;26.85;;;17.80;;
11447;SDS011;43755;49.736;8.734;2022-12-18T12:11:08;27.90;;;17.95;;